Time;durP1;ratioP1;P1;durP2;ratioP2;P2;SDS_P1;SDS_P2;PMS_P1;PMS_P2;Temp;Humidity;BMP_temperature;BMP_pressure;BME280_temperature;BME280_humidity;BME280_pressure;Samples;Min_cycle;Max_cycle;Signal;HPM_P1;HPM_P2
2022/02/21 00:00:48;;;;;;;12.85;2.13;;;;;;;7.92;99.05;97509.06;5035118;28;20442;-54
2022/02/21 00:03:15;;;;;;;6.85;2.15;;;;;;;7.98;98.29;97480.50;5031023;28;20026;-53
2022/02/21 00:05:40;;;;;;;9.20;1.92;;;;;;;7.86;99.33;97504.81;5027794;28;20060;-54
2022/02/21 00:08:06;;;;;;;12.85;2.53;;;;;;;7.90;99.47;97511.19;5040431;28;20403;-54
2022/02/21 00:10:31;;;;;;;10.45;2.40;;;;;;;7.95;99.04;97510.41;5026394;28;20483;-54
2022/02/21 00:12:57;;;;;;;8.60;2.20;;;;;;;7.91;99.32;97534.16;5031489;28;20025;-54
2022/02/21 00:15:25;;;;;;;10.50;2.38;;;;;;;7.83;100.00;97539.19;5031996;28;20537;-54
2022/02/21 00:17:51;;;;;;;10.98;2.13;;;;;;;7.82;100.00;97545.59;5038164;28;20083;-55
2022/02/21 00:20:16;;;;;;;9.15;2.03;;;;;;;7.88;100.00;97577.34;5037712;28;20047;-54
2022/02/21 00:22:42;;;;;;;7.50;1.77;;;;;;;7.88;100.00;97605.88;5031362;28;20029;-55
2022/02/21 00:25:08;;;;;;;17.35;2.33;;;;;;;7.78;100.00;97689.34;5031294;28;20045;-54
2022/02/21 00:27:33;;;;;;;9.07;1.85;;;;;;;6.25;100.00;97652.72;5033432;28;20088;-56
2022/02/21 00:29:59;;;;;;;6.05;1.48;;;;;;;6.14;98.38;97667.00;5038952;28;20083;-55
2022/02/21 00:32:24;;;;;;;3.92;1.08;;;;;;;6.74;88.31;97605.69;5036209;28;20495;-55
2022/02/21 00:34:49;;;;;;;10.20;1.98;;;;;;;6.63;87.22;97557.72;5038334;28;20044;-56
2022/02/21 00:37:15;;;;;;;2.95;1.10;;;;;;;6.45;85.33;97576.78;5039945;28;20081;-56
2022/02/21 00:39:40;;;;;;;4.43;1.25;;;;;;;6.26;84.36;97595.81;5030113;28;20025;-56
2022/02/21 00:42:06;;;;;;;8.27;1.38;;;;;;;6.31;82.51;97607.53;5031856;28;20041;-55
2022/02/21 00:44:32;;;;;;;3.47;1.30;;;;;;;6.24;83.50;97629.00;5035342;28;20459;-54
2022/02/21 00:46:58;;;;;;;6.30;1.55;;;;;;;6.22;82.95;97647.91;5036420;28;20088;-54
2022/02/21 00:49:24;;;;;;;3.47;1.27;;;;;;;6.20;83.23;97659.88;5037296;28;20053;-54
2022/02/21 00:51:49;;;;;;;4.82;1.35;;;;;;;6.07;83.10;97702.84;5033450;28;20053;-56
2022/02/21 00:54:15;;;;;;;2.05;1.02;;;;;;;5.52;82.41;97670.03;5032531;28;20408;-54
2022/02/21 00:56:40;;;;;;;2.17;1.10;;;;;;;5.19;80.50;97720.34;5032836;28;20527;-54
2022/02/21 00:59:05;;;;;;;6.18;1.30;;;;;;;5.05;81.14;97718.28;5036962;28;20033;-55
2022/02/21 01:01:31;;;;;;;5.68;1.63;;;;;;;4.93;81.24;97719.16;5034759;28;20442;-54
2022/02/21 01:03:57;;;;;;;2.85;1.20;;;;;;;4.99;79.37;97690.81;5031153;28;20040;-51
2022/02/21 01:06:22;;;;;;;4.82;1.20;;;;;;;5.03;78.63;97691.16;5032213;28;20038;-54
2022/02/21 01:08:47;;;;;;;7.20;1.50;;;;;;;5.03;77.98;97701.78;5036601;28;20025;-54
2022/02/21 01:11:13;;;;;;;8.90;2.00;;;;;;;5.07;77.34;97694.94;5030162;28;20049;-54
2022/02/21 01:13:39;;;;;;;4.55;1.55;;;;;;;5.06;76.93;97698.63;5034415;28;20076;-53
2022/02/21 01:16:04;;;;;;;8.15;1.15;;;;;;;5.04;77.17;97714.00;5035935;28;20477;-54
2022/02/21 01:18:30;;;;;;;6.20;1.45;;;;;;;4.95;78.93;97718.94;5035457;28;20045;-54
2022/02/21 01:20:55;;;;;;;6.35;2.05;;;;;;;5.02;77.37;97714.25;5032032;28;20041;-54
2022/02/21 01:23:20;;;;;;;5.50;1.40;;;;;;;5.06;78.28;97720.66;5038481;28;20029;-55
2022/02/21 01:25:46;;;;;;;2.33;1.20;;;;;;;4.95;79.41;97740.16;5034842;28;20041;-54
2022/02/21 01:28:11;;;;;;;7.00;1.60;;;;;;;4.93;78.55;97716.50;5033620;28;20054;-54
2022/02/21 01:30:37;;;;;;;2.38;1.20;;;;;;;5.01;77.72;97717.16;5035107;28;20054;-53
2022/02/21 01:33:02;;;;;;;4.07;1.65;;;;;;;5.03;77.67;97713.19;5032870;28;20368;-55
2022/02/21 01:35:27;;;;;;;3.13;1.30;;;;;;;4.94;78.20;97723.44;5034695;28;20062;-55
2022/02/21 01:37:53;;;;;;;7.38;2.03;;;;;;;4.98;78.97;97715.78;5029845;28;20033;-53
2022/02/21 01:40:20;;;;;;;4.82;1.65;;;;;;;5.05;78.21;97731.56;5030334;28;20136;-55
2022/02/21 01:42:46;;;;;;;5.72;1.48;;;;;;;4.94;79.25;97730.56;5028294;28;20480;-54
2022/02/21 01:45:11;;;;;;;3.25;1.27;;;;;;;4.94;79.78;97750.00;5040132;28;20045;-54
2022/02/21 01:47:36;;;;;;;4.68;1.50;;;;;;;4.93;80.28;97753.69;5030890;28;20036;-55
2022/02/21 01:50:02;;;;;;;13.88;1.75;;;;;;;4.95;80.17;97729.56;5034920;28;20025;-54
2022/02/21 01:52:28;;;;;;;9.98;1.80;;;;;;;4.86;82.03;97750.38;5032918;28;20045;-55
2022/02/21 01:54:53;;;;;;;5.43;2.03;;;;;;;4.80;83.82;97756.66;5037708;28;20036;-53
2022/02/21 01:57:19;;;;;;;7.30;1.80;;;;;;;4.68;84.39;97782.47;5035432;28;20045;-54
2022/02/21 01:59:44;;;;;;;3.47;1.60;;;;;;;4.58;85.39;97775.13;5029233;28;20534;-54
2022/02/21 02:02:10;;;;;;;4.97;1.70;;;;;;;4.45;85.97;97781.53;5028224;28;20056;-54
2022/02/21 02:04:36;;;;;;;4.10;1.42;;;;;;;4.42;85.98;97789.97;5036396;28;20221;-54
2022/02/21 02:07:03;;;;;;;7.60;1.90;;;;;;;4.39;85.54;97786.97;5030691;28;20041;-54
2022/02/21 02:09:29;;;;;;;9.35;1.67;;;;;;;4.38;85.42;97788.84;5037749;28;20025;-54
2022/02/21 02:11:54;;;;;;;8.95;1.67;;;;;;;4.30;85.96;97787.38;5034537;28;20498;-55
2022/02/21 02:14:38;;;;;;;2.80;1.45;;;;;;;4.38;83.92;97799.44;5039328;28;20392;-52
2022/02/21 02:17:09;;;;;;;9.65;2.00;;;;;;;4.34;82.84;97798.31;5034706;28;20044;-55
2022/02/21 02:19:35;;;;;;;9.05;1.50;;;;;;;4.44;80.58;97816.25;5034392;28;20026;-54
2022/02/21 02:22:11;;;;;;;3.88;1.60;;;;;;;4.44;79.92;97814.44;5035405;28;20111;-54
2022/02/21 02:24:36;;;;;;;3.22;1.30;;;;;;;4.47;79.89;97829.88;5041321;28;20067;-54
2022/02/21 02:27:01;;;;;;;6.68;1.73;;;;;;;4.37;80.49;97815.59;5029694;28;20470;-52
2022/02/21 02:29:27;;;;;;;4.47;1.55;;;;;;;4.26;81.34;97823.34;5027386;28;20388;-53
2022/02/21 02:31:54;;;;;;;3.00;1.70;;;;;;;4.21;79.29;97825.09;5032409;28;20670;-54
2022/02/21 02:34:19;;;;;;;3.80;1.70;;;;;;;4.09;79.47;97825.97;5034294;28;20029;-55
2022/02/21 02:36:47;;;;;;;3.70;1.50;;;;;;;3.91;80.95;97841.22;5031917;28;20052;-52
2022/02/21 02:39:14;;;;;;;5.50;1.63;;;;;;;3.75;83.88;97853.34;5033580;28;20037;-53
2022/02/21 02:41:42;;;;;;;2.42;1.52;;;;;;;3.59;83.53;97850.31;5029464;28;20053;-54
2022/02/21 02:44:08;;;;;;;2.00;1.42;;;;;;;3.54;82.93;97821.06;5033543;28;20514;-54
2022/02/21 02:46:33;;;;;;;8.18;1.85;;;;;;;3.50;83.51;97830.53;5032871;28;20051;-54
2022/02/21 02:48:58;;;;;;;2.33;1.60;;;;;;;3.43;83.45;97841.25;5034987;28;20104;-54
2022/02/21 02:51:24;;;;;;;1.98;1.27;;;;;;;3.51;83.90;97885.13;5034972;28;20041;-53
2022/02/21 02:53:50;;;;;;;6.40;1.63;;;;;;;3.34;81.99;97900.88;5030336;28;20060;-54
2022/02/21 02:56:16;;;;;;;5.32;2.00;;;;;;;3.30;81.52;97875.09;5030401;28;20041;-54
2022/02/21 02:58:41;;;;;;;6.03;1.60;;;;;;;3.30;79.06;97867.94;5031933;28;20380;-54
2022/02/21 03:01:07;;;;;;;8.60;2.70;;;;;;;3.33;78.41;97858.75;5030980;28;20484;-51
2022/02/21 03:03:32;;;;;;;5.05;1.77;;;;;;;3.33;76.99;97856.09;5031324;28;20028;-56
2022/02/21 03:05:57;;;;;;;26.40;3.00;;;;;;;3.36;77.95;97842.38;5032326;28;20049;-55
2022/02/21 03:08:23;;;;;;;10.98;2.58;;;;;;;3.33;78.58;97851.59;5031754;28;20459;-54
2022/02/21 03:10:48;;;;;;;9.05;2.10;;;;;;;3.30;80.31;97867.16;5033926;28;20238;-53
2022/02/21 03:13:14;;;;;;;14.43;3.03;;;;;;;3.12;83.44;97860.91;5039090;28;20037;-54
2022/02/21 03:15:39;;;;;;;5.45;2.28;;;;;;;3.03;85.05;97865.72;5029916;28;20049;-55
2022/02/21 03:18:04;;;;;;;11.10;2.20;;;;;;;2.98;86.45;97870.06;5029844;28;20037;-54
2022/02/21 03:20:30;;;;;;;7.82;2.20;;;;;;;2.87;87.55;97873.47;5028287;28;20037;-55
2022/02/21 03:22:55;;;;;;;7.65;2.38;;;;;;;2.89;88.00;97877.53;5035706;28;20029;-55
2022/02/21 03:25:21;;;;;;;7.75;2.00;;;;;;;2.75;88.64;97868.97;5036081;28;20041;-54
2022/02/21 03:27:46;;;;;;;7.82;2.70;;;;;;;2.71;88.31;97875.75;5030930;28;20044;-52
2022/02/21 03:30:12;;;;;;;7.95;2.05;;;;;;;2.61;88.36;97867.53;5035586;28;20030;-55
2022/02/21 03:32:38;;;;;;;14.30;2.47;;;;;;;2.63;88.05;97865.47;5027454;28;20056;-54
2022/02/21 03:35:04;;;;;;;11.88;2.55;;;;;;;2.65;87.65;97855.47;5027841;28;20439;-55
2022/02/21 03:37:30;;;;;;;6.65;2.17;;;;;;;2.68;87.24;97865.63;5034473;28;20029;-55
2022/02/21 03:39:55;;;;;;;11.60;2.53;;;;;;;2.62;87.33;97861.22;5028946;28;20460;-54
2022/02/21 03:42:21;;;;;;;12.50;2.67;;;;;;;2.70;85.49;97868.03;5035921;28;20040;-54
2022/02/21 03:44:46;;;;;;;11.80;2.58;;;;;;;2.67;86.86;97871.94;5033194;28;20045;-54
2022/02/21 03:47:11;;;;;;;12.25;2.15;;;;;;;2.70;85.68;97879.44;5025797;28;20049;-54
2022/02/21 03:49:37;;;;;;;7.57;2.00;;;;;;;2.81;85.36;97885.78;5030867;28;20585;-53
2022/02/21 03:52:02;;;;;;;6.72;2.00;;;;;;;2.96;80.97;97880.06;5030271;28;20052;-53
2022/02/21 03:54:28;;;;;;;4.10;1.83;;;;;;;2.89;81.68;97924.34;5036089;28;20033;-52
2022/02/21 03:56:53;;;;;;;11.02;2.30;;;;;;;2.96;80.65;97940.97;5033369;28;20037;-52
2022/02/21 03:59:18;;;;;;;12.68;2.53;;;;;;;2.76;83.70;97920.84;5035177;28;20399;-54
2022/02/21 04:01:44;;;;;;;13.90;2.92;;;;;;;2.64;83.44;97925.28;5027121;28;20049;-54
2022/02/21 04:04:09;;;;;;;10.55;2.03;;;;;;;2.52;82.45;97919.13;5027054;28;20033;-54
2022/02/21 04:06:35;;;;;;;4.43;1.95;;;;;;;2.45;82.01;97902.56;5028614;28;20045;-54
2022/02/21 04:09:00;;;;;;;5.18;1.75;;;;;;;2.45;82.77;97913.94;5032265;28;20029;-55
2022/02/21 04:11:26;;;;;;;6.47;1.83;;;;;;;2.49;83.01;97895.78;5028102;28;20042;-54
2022/02/21 04:13:51;;;;;;;12.93;2.53;;;;;;;2.38;84.76;97908.72;5032984;28;20451;-54
2022/02/21 04:16:17;;;;;;;11.07;2.42;;;;;;;2.48;85.96;97925.91;5028057;28;20037;-55
2022/02/21 04:18:45;;;;;;;11.10;2.10;;;;;;;2.38;86.86;97940.44;5032543;28;20475;-54
2022/02/21 04:21:10;;;;;;;25.05;3.55;;;;;;;2.35;87.08;97919.75;5029388;28;20054;-54
2022/02/21 04:23:36;;;;;;;14.20;2.30;;;;;;;2.28;88.99;97913.72;5035323;28;20029;-54
2022/02/21 04:26:01;;;;;;;17.33;2.55;;;;;;;2.35;88.99;97935.59;5026723;28;20050;-55
2022/02/21 04:28:27;;;;;;;14.80;2.50;;;;;;;2.25;90.19;97939.81;5028490;28;20460;-54
2022/02/21 04:30:52;;;;;;;13.05;2.40;;;;;;;2.20;90.81;97937.81;5039530;28;20045;-54
2022/02/21 04:33:17;;;;;;;8.88;2.10;;;;;;;2.02;92.04;97935.13;5033886;28;20029;-55
2022/02/21 04:35:43;;;;;;;12.90;2.30;;;;;;;1.97;92.05;97929.69;5030127;28;20044;-53
2022/02/21 04:38:10;;;;;;;10.93;2.10;;;;;;;1.87;92.23;97923.09;5036493;28;20087;-54
2022/02/21 04:40:35;;;;;;;9.32;2.65;;;;;;;1.86;91.79;97932.03;5034925;28;20142;-54
2022/02/21 04:43:00;;;;;;;15.93;2.45;;;;;;;1.84;91.11;97928.81;5025108;28;20026;-54
2022/02/21 04:45:26;;;;;;;16.08;2.80;;;;;;;1.90;90.00;97935.88;5009853;28;20041;-54
2022/02/21 04:47:51;;;;;;;13.27;2.80;;;;;;;1.94;88.96;97929.09;5027429;28;20160;-54
2022/02/21 04:50:17;;;;;;;10.57;3.15;;;;;;;1.99;87.70;97946.16;5027436;28;20380;-54
2022/02/21 04:52:42;;;;;;;10.77;2.40;;;;;;;2.14;85.95;97925.47;5029762;28;20041;-54
2022/02/21 04:55:09;;;;;;;11.65;2.55;;;;;;;2.23;85.85;97945.31;5029276;28;20025;-54
2022/02/21 04:57:35;;;;;;;10.88;2.20;;;;;;;2.16;86.89;97944.56;5024174;28;20025;-54
2022/02/21 05:00:04;;;;;;;13.80;2.58;;;;;;;1.98;87.41;97944.56;5038831;28;20451;-54
2022/02/21 05:02:30;;;;;;;15.63;2.85;;;;;;;2.06;85.74;97952.19;5035486;28;20384;-52
2022/02/21 05:04:55;;;;;;;15.05;2.90;;;;;;;1.97;85.87;97956.13;5031385;28;20083;-55
2022/02/21 05:07:20;;;;;;;18.63;4.30;;;;;;;1.87;85.81;97943.41;5031298;28;20045;-55
2022/02/21 05:09:46;;;;;;;15.45;2.88;;;;;;;1.88;86.09;97953.78;5037630;28;20042;-54
2022/02/21 05:12:11;;;;;;;10.52;2.40;;;;;;;1.90;85.97;97961.50;5037705;28;20040;-53
2022/02/21 05:14:37;;;;;;;13.18;2.80;;;;;;;1.90;84.92;97958.84;5039091;28;20029;-52
2022/02/21 05:17:04;;;;;;;18.30;2.97;;;;;;;1.91;85.59;97958.63;5036580;28;20091;-54
2022/02/21 05:19:30;;;;;;;14.20;2.60;;;;;;;1.83;86.30;97969.47;5030929;28;20037;-54
2022/02/21 05:21:55;;;;;;;9.82;2.70;;;;;;;1.79;85.33;97952.44;5036491;28;20340;-56
2022/02/21 05:24:20;;;;;;;21.23;2.58;;;;;;;1.91;84.19;97950.69;5035193;28;20025;-55
2022/02/21 05:26:46;;;;;;;14.65;2.58;;;;;;;2.13;80.61;97958.22;5032623;28;20051;-53
2022/02/21 05:29:11;;;;;;;16.08;3.15;;;;;;;2.20;79.43;97958.97;5037506;28;20488;-51
2022/02/21 05:31:37;;;;;;;17.42;2.75;;;;;;;2.15;79.85;97950.88;5028361;28;20061;-55
2022/02/21 05:34:02;;;;;;;16.85;2.50;;;;;;;2.22;78.40;97953.44;5036389;28;20040;-53
2022/02/21 05:36:27;;;;;;;14.07;2.92;;;;;;;2.20;78.83;97940.47;5033441;28;20096;-52
2022/02/21 05:38:53;;;;;;;12.05;2.53;;;;;;;2.21;79.01;97950.00;5034891;28;20110;-54
2022/02/21 05:41:18;;;;;;;18.00;3.10;;;;;;;2.09;79.70;97941.16;5029652;28;20148;-53
2022/02/21 05:43:44;;;;;;;20.80;3.25;;;;;;;2.07;79.34;97948.50;5033698;28;20148;-53
2022/02/21 05:46:09;;;;;;;12.15;2.53;;;;;;;1.96;80.34;97946.59;5037407;28;20041;-54
2022/02/21 05:48:35;;;;;;;8.25;2.78;;;;;;;2.07;79.32;97959.06;5036756;28;20033;-54
2022/02/21 05:51:00;;;;;;;17.55;2.97;;;;;;;2.07;79.70;97954.63;5035320;28;20490;-53
2022/02/21 05:53:25;;;;;;;18.55;2.90;;;;;;;1.89;81.34;97968.59;5037771;28;20060;-52
2022/02/21 05:55:51;;;;;;;10.65;2.05;;;;;;;1.83;81.64;97974.75;5033800;28;20040;-52
2022/02/21 05:58:16;;;;;;;12.15;2.40;;;;;;;1.75;84.52;97972.41;5029110;28;20064;-52
2022/02/21 06:00:46;;;;;;;27.35;4.80;;;;;;;1.70;86.39;97973.03;5034007;28;20045;-53
2022/02/21 06:03:11;;;;;;;10.57;2.45;;;;;;;1.65;87.67;97975.53;5033472;28;20095;-52
2022/02/21 06:05:37;;;;;;;19.38;3.05;;;;;;;1.69;87.77;97978.53;5029876;28;20057;-54
2022/02/21 06:08:02;;;;;;;19.67;3.58;;;;;;;1.61;87.92;97957.69;5036778;28;20034;-52
2022/02/21 06:10:27;;;;;;;29.17;3.45;;;;;;;1.45;88.25;97957.19;5034639;28;20052;-54
2022/02/21 06:12:53;;;;;;;18.10;2.92;;;;;;;1.46;87.99;97958.00;5031813;28;20052;-54
2022/02/21 06:15:18;;;;;;;27.05;3.83;;;;;;;1.42;88.52;97951.50;5034807;28;20025;-52
2022/02/21 06:17:44;;;;;;;10.05;3.15;;;;;;;1.40;88.53;97962.31;5035102;28;20081;-55
2022/02/21 06:20:10;;;;;;;19.42;3.60;;;;;;;1.28;88.79;97958.72;5036488;28;20036;-53
2022/02/21 06:22:35;;;;;;;17.33;3.00;;;;;;;1.27;88.66;97957.09;5031973;28;20353;-55
2022/02/21 06:25:01;;;;;;;29.42;3.35;;;;;;;1.33;87.13;97964.19;5029590;28;20037;-51
2022/02/21 06:27:27;;;;;;;12.63;3.10;;;;;;;1.50;85.45;97978.47;5030226;28;20391;-54
2022/02/21 06:29:53;;;;;;;14.23;3.15;;;;;;;1.67;84.27;97986.69;5039415;28;20047;-53
2022/02/21 06:32:18;;;;;;;24.17;3.45;;;;;;;1.98;81.09;97987.63;5036025;28;20557;-53
2022/02/21 06:34:43;;;;;;;15.73;2.40;;;;;;;2.12;80.35;97989.13;5032386;28;20336;-51
2022/02/21 06:37:09;;;;;;;11.40;2.63;;;;;;;2.22;80.21;97993.94;5035480;28;20371;-51
2022/02/21 06:39:34;;;;;;;13.75;2.28;;;;;;;2.07;84.38;97996.09;5041966;28;20041;-52
2022/02/21 06:41:59;;;;;;;16.42;2.65;;;;;;;1.89;86.92;98002.94;5029420;28;20407;-52
2022/02/21 06:44:25;;;;;;;16.35;2.80;;;;;;;1.71;89.60;97997.63;5029918;28;20123;-53
2022/02/21 06:46:50;;;;;;;12.82;2.10;;;;;;;1.71;90.63;98019.56;5031817;28;20053;-55
2022/02/21 06:49:16;;;;;;;13.27;2.50;;;;;;;1.54;92.28;98020.28;5026426;28;20467;-54
2022/02/21 06:51:41;;;;;;;8.43;2.58;;;;;;;1.51;92.70;98017.06;5033833;28;20049;-54
2022/02/21 06:54:07;;;;;;;11.82;3.08;;;;;;;1.55;91.99;98006.06;5029672;28;20079;-55
2022/02/21 06:56:33;;;;;;;26.33;2.90;;;;;;;1.53;91.82;98013.41;5028386;28;20057;-52
2022/02/21 06:58:58;;;;;;;24.90;3.67;;;;;;;1.51;91.83;98009.13;5035141;28;20029;-54
2022/02/21 07:01:23;;;;;;;14.90;2.53;;;;;;;1.52;91.64;98025.78;5029242;28;20049;-54
2022/02/21 07:03:49;;;;;;;12.73;2.53;;;;;;;1.56;90.60;98036.75;5036747;28;20020;-54
2022/02/21 07:06:15;;;;;;;17.13;2.95;;;;;;;1.54;90.78;98041.41;5026848;28;20045;-54
2022/02/21 07:08:41;;;;;;;14.60;2.22;;;;;;;1.51;89.80;98046.09;5027324;28;20041;-54
2022/02/21 07:11:06;;;;;;;6.97;2.30;;;;;;;1.70;86.91;98043.56;5028183;28;20492;-54
2022/02/21 07:13:32;;;;;;;10.50;2.20;;;;;;;1.86;85.80;98058.88;5031718;28;20030;-54
2022/02/21 07:15:57;;;;;;;6.90;2.28;;;;;;;2.07;84.65;98051.59;5027420;28;20399;-55
2022/02/21 07:18:23;;;;;;;13.55;2.65;;;;;;;2.13;84.08;98048.09;5037002;28;20070;-55
2022/02/21 07:20:48;;;;;;;21.40;3.20;;;;;;;1.97;83.91;98048.63;5031346;28;20359;-54
2022/02/21 07:23:14;;;;;;;14.40;2.90;;;;;;;2.18;82.24;98058.03;5035623;28;20037;-54
2022/02/21 07:25:39;;;;;;;20.13;2.40;;;;;;;2.67;79.89;98051.84;5032820;28;20047;-54
2022/02/21 07:28:05;;;;;;;13.13;2.45;;;;;;;3.66;75.35;98052.41;5034030;28;20044;-55
2022/02/21 07:30:30;;;;;;;17.83;2.90;;;;;;;3.66;73.69;98046.31;5037738;28;20095;-54
2022/02/21 07:32:56;;;;;;;26.52;3.40;;;;;;;3.95;72.23;98060.56;5032301;28;20458;-53
2022/02/21 07:35:25;;;;;;;16.13;2.90;;;;;;;4.39;70.80;98057.56;5028272;28;20048;-54
2022/02/21 07:37:50;;;;;;;17.35;3.45;;;;;;;4.54;68.63;98053.44;5026836;28;20546;-54
2022/02/21 07:40:15;;;;;;;17.75;3.22;;;;;;;5.08;66.88;98063.03;5028198;28;20037;-54
2022/02/21 07:42:47;;;;;;;14.27;3.08;;;;;;;4.29;68.91;98060.81;5033862;28;20037;-54
2022/02/21 07:45:12;;;;;;;16.35;2.97;;;;;;;3.48;71.58;98067.56;5028411;28;20042;-54
2022/02/21 07:47:48;;;;;;;12.65;2.35;;;;;;;3.24;72.77;98065.63;5031720;28;20040;-55
2022/02/21 07:50:13;;;;;;;17.85;2.70;;;;;;;3.03;72.92;98066.09;5028031;28;20033;-55
2022/02/21 07:52:38;;;;;;;21.58;3.60;;;;;;;3.07;73.81;98061.97;5011007;28;20178;-55
2022/02/21 07:55:04;;;;;;;23.20;3.38;;;;;;;3.53;72.70;98067.69;5027957;28;20068;-54
2022/02/21 07:57:30;;;;;;;24.30;3.08;;;;;;;4.73;68.14;98071.88;5034224;28;20029;-52
2022/02/21 07:59:57;;;;;;;25.73;3.00;;;;;;;4.22;70.36;98068.88;5031082;28;20107;-54
2022/02/21 08:02:23;;;;;;;23.48;4.20;;;;;;;4.61;68.75;98065.75;5032087;28;20522;-54
2022/02/21 08:04:48;;;;;;;13.60;3.60;;;;;;;4.44;72.21;98079.75;5031261;28;20021;-54
2022/02/21 08:07:14;;;;;;;23.55;3.50;;;;;;;4.25;69.84;98044.56;5039161;28;20052;-55
2022/02/21 08:09:39;;;;;;;21.73;3.60;;;;;;;5.06;68.01;98071.22;5034772;28;20033;-53
2022/02/21 08:12:07;;;;;;;20.20;3.83;;;;;;;4.59;69.46;98075.81;5033194;28;20045;-52
2022/02/21 08:14:33;;;;;;;17.92;2.58;;;;;;;4.30;70.95;98083.66;5028523;28;20021;-54
2022/02/21 08:16:58;;;;;;;16.83;3.97;;;;;;;4.07;72.00;98063.22;5027689;28;20104;-53
2022/02/21 08:19:24;;;;;;;20.38;4.07;;;;;;;4.12;71.75;98073.97;5030718;28;20021;-53
2022/02/21 08:21:49;;;;;;;17.52;3.13;;;;;;;4.38;70.72;98062.09;5034112;28;20041;-53
2022/02/21 08:24:15;;;;;;;27.23;3.30;;;;;;;4.79;68.18;98068.28;5034585;28;20025;-55
2022/02/21 08:26:40;;;;;;;21.60;3.08;;;;;;;5.40;65.80;98072.16;5036395;28;20044;-54
2022/02/21 08:29:06;;;;;;;7.75;3.05;;;;;;;4.79;66.67;98062.97;5031976;28;20250;-54
2022/02/21 08:31:31;;;;;;;16.88;3.53;;;;;;;4.80;67.49;98055.84;5039526;28;20453;-54
2022/02/21 08:33:57;;;;;;;15.07;4.43;;;;;;;5.07;65.66;98072.06;5032863;28;20365;-53
2022/02/21 08:36:22;;;;;;;13.90;3.22;;;;;;;5.22;65.48;98082.97;5030445;28;20037;-56
2022/02/21 08:38:47;;;;;;;10.95;2.40;;;;;;;4.69;66.12;98065.41;5030444;28;20037;-55
2022/02/21 08:41:13;;;;;;;12.40;3.30;;;;;;;4.53;67.84;98078.34;5035407;28;20045;-55
2022/02/21 08:43:38;;;;;;;16.60;2.53;;;;;;;4.37;68.05;98075.56;5033236;28;20048;-56
2022/02/21 08:46:04;;;;;;;12.40;2.72;;;;;;;4.41;68.18;98080.19;5036126;28;20518;-54
2022/02/21 08:48:29;;;;;;;16.63;2.60;;;;;;;4.35;65.73;98081.13;5035837;28;20034;-56
2022/02/21 08:50:54;;;;;;;19.33;2.65;;;;;;;4.14;67.37;98076.38;5031142;28;20048;-55
2022/02/21 08:53:20;;;;;;;13.15;2.90;;;;;;;4.22;66.45;98066.25;5034765;28;20471;-55
2022/02/21 08:55:45;;;;;;;12.80;2.45;;;;;;;4.04;67.17;98061.84;5036440;28;20040;-56
2022/02/21 08:58:11;;;;;;;16.27;3.03;;;;;;;5.02;63.67;98064.78;5031466;28;20030;-56
2022/02/21 09:00:40;;;;;;;21.58;3.60;;;;;;;5.76;60.87;98059.50;5031632;28;20049;-56
2022/02/21 09:03:06;;;;;;;13.52;3.38;;;;;;;6.14;60.49;98066.03;5037770;28;20623;-56
2022/02/21 09:05:31;;;;;;;15.88;2.85;;;;;;;5.95;61.48;98067.31;5037404;28;20049;-57
2022/02/21 09:07:56;;;;;;;14.15;3.20;;;;;;;6.36;59.78;98070.63;5032457;28;20041;-55
2022/02/21 09:10:22;;;;;;;17.45;2.92;;;;;;;6.44;58.91;98062.22;5035574;28;20045;-56
2022/02/21 09:12:47;;;;;;;16.00;3.85;;;;;;;6.06;60.04;98079.72;5032039;28;20025;-54
2022/02/21 09:15:13;;;;;;;15.25;3.28;;;;;;;6.31;60.28;98071.34;5034069;28;20395;-55
2022/02/21 09:17:38;;;;;;;13.23;2.47;;;;;;;6.40;58.53;98074.41;5036545;28;20083;-56
2022/02/21 09:20:04;;;;;;;16.15;3.00;;;;;;;6.31;59.75;98065.22;5032093;28;20029;-55
2022/02/21 09:22:29;;;;;;;22.20;3.75;;;;;;;6.34;58.27;98040.78;5031286;28;20032;-56
2022/02/21 09:24:55;;;;;;;14.05;4.28;;;;;;;6.53;57.86;98060.75;5031426;28;20041;-52
2022/02/21 09:27:20;;;;;;;14.07;2.97;;;;;;;6.30;56.60;98063.63;5030503;28;20046;-54
2022/02/21 09:29:46;;;;;;;19.10;5.75;;;;;;;6.31;57.33;98075.88;5029639;28;20059;-53
2022/02/21 09:32:11;;;;;;;15.88;3.78;;;;;;;6.20;58.25;98070.38;5028388;28;20044;-54
2022/02/21 09:34:37;;;;;;;20.00;3.92;;;;;;;5.41;58.94;98072.97;5033874;28;20060;-55
2022/02/21 09:37:02;;;;;;;19.05;4.47;;;;;;;5.03;60.33;98060.28;5032911;28;20388;-55
2022/02/21 09:39:28;;;;;;;14.90;2.33;;;;;;;6.26;57.94;98063.28;5040319;28;20029;-54
2022/02/21 09:41:54;;;;;;;11.70;2.47;;;;;;;6.12;57.58;98068.13;5034791;28;20450;-55
2022/02/21 09:44:20;;;;;;;16.10;2.50;;;;;;;5.61;59.66;98073.34;5035291;28;20047;-54
2022/02/21 09:46:46;;;;;;;14.25;2.92;;;;;;;6.39;56.91;98086.09;5034878;28;20042;-55
2022/02/21 09:49:12;;;;;;;13.32;2.67;;;;;;;5.94;58.28;98081.66;5028922;28;20186;-54
2022/02/21 09:51:37;;;;;;;15.43;2.90;;;;;;;6.03;59.77;98090.84;5016415;28;20163;-55
2022/02/21 09:54:03;;;;;;;26.92;2.47;;;;;;;5.77;58.06;98095.72;5022507;28;20029;-55
2022/02/21 09:56:28;;;;;;;11.52;2.00;;;;;;;5.90;57.46;98096.47;5036187;28;20037;-55
2022/02/21 09:58:55;;;;;;;15.95;3.33;;;;;;;5.94;58.24;98109.06;5041752;28;20029;-53
2022/02/21 10:01:26;;;;;;;7.88;2.00;;;;;;;5.49;58.87;98093.88;5029845;28;20132;-54
2022/02/21 10:03:54;;;;;;;18.67;2.80;;;;;;;5.53;59.60;98096.84;5031934;28;20482;-54
2022/02/21 10:06:25;;;;;;;9.45;2.28;;;;;;;5.72;59.22;98097.47;5029244;28;20132;-54
2022/02/21 10:09:07;;;;;;;10.52;2.53;;;;;;;5.86;58.73;98092.66;5032860;28;20454;-55
2022/02/21 10:11:33;;;;;;;20.38;2.47;;;;;;;5.69;59.54;98074.84;5030190;28;20103;-55
2022/02/21 10:14:03;;;;;;;18.00;3.15;;;;;;;5.69;59.39;98090.78;5031470;28;20037;-54
2022/02/21 10:16:40;;;;;;;14.95;2.85;;;;;;;6.02;58.70;98078.63;5029316;28;20067;-56
2022/02/21 10:19:09;;;;;;;17.55;2.55;;;;;;;6.13;57.73;98099.00;5037010;28;20094;-54
2022/02/21 10:22:04;;;;;;;12.05;2.35;;;;;;;5.95;58.39;98085.94;5029109;28;20101;-54
2022/02/21 10:24:35;;;;;;;10.93;3.33;;;;;;;5.91;59.00;98051.00;5031149;28;20203;-56
2022/02/21 10:27:23;;;;;;;14.20;2.97;;;;;;;5.82;57.80;98045.28;5028903;28;20041;-54
2022/02/21 10:29:54;;;;;;;10.23;2.20;;;;;;;5.59;58.98;98045.38;5032235;28;20139;-53
2022/02/21 10:32:24;;;;;;;13.95;2.13;;;;;;;5.54;58.61;98050.63;5034223;28;20530;-55
2022/02/21 10:34:50;;;;;;;13.90;2.53;;;;;;;5.69;58.31;98042.09;5033595;28;20099;-54
2022/02/21 10:37:23;;;;;;;21.58;3.35;;;;;;;5.62;59.26;98031.63;5036247;28;20041;-54
2022/02/21 10:39:48;;;;;;;11.10;2.58;;;;;;;5.49;59.42;98031.91;5036630;28;20030;-55
2022/02/21 10:42:24;;;;;;;21.20;2.10;;;;;;;5.48;59.06;98036.44;5028661;28;20051;-53
2022/02/21 10:44:50;;;;;;;14.35;2.58;;;;;;;5.55;58.81;98025.66;5027757;28;20042;-52
2022/02/21 10:47:17;;;;;;;15.65;2.55;;;;;;;5.36;59.89;98028.50;5026536;28;20041;-55
2022/02/21 10:49:49;;;;;;;11.77;2.85;;;;;;;5.34;62.14;98024.47;5034603;28;20434;-52
2022/02/21 10:52:18;;;;;;;19.75;2.63;;;;;;;5.22;62.11;98013.91;5032281;28;20162;-54
2022/02/21 10:54:43;;;;;;;16.48;2.38;;;;;;;5.32;62.77;98024.72;5031780;28;20021;-53
2022/02/21 10:57:10;;;;;;;12.98;2.08;;;;;;;5.48;63.05;98019.69;5028084;28;20049;-54
2022/02/21 10:59:35;;;;;;;14.02;2.25;;;;;;;5.57;63.89;98023.56;5030001;28;20033;-55
2022/02/21 11:02:02;;;;;;;11.52;2.30;;;;;;;5.49;63.17;98014.16;5029970;28;20127;-53
2022/02/21 11:04:28;;;;;;;25.45;4.22;;;;;;;5.64;63.25;98013.56;5035811;28;20021;-53
2022/02/21 11:06:53;;;;;;;11.77;2.67;;;;;;;5.64;63.87;98002.94;5033228;28;20048;-54
2022/02/21 11:09:20;;;;;;;11.80;2.03;;;;;;;5.72;63.82;98010.53;5012275;28;20045;-52
2022/02/21 11:11:47;;;;;;;10.35;2.72;;;;;;;5.96;63.07;97991.78;5034135;28;20045;-51
2022/02/21 11:14:18;;;;;;;15.70;3.38;;;;;;;5.95;62.59;97992.84;5029462;28;20537;-53
2022/02/21 11:16:46;;;;;;;10.15;2.20;;;;;;;5.97;62.71;97977.47;5031124;28;20072;-52
2022/02/21 11:19:12;;;;;;;17.15;2.78;;;;;;;6.08;62.43;97991.72;5026948;28;20021;-53
2022/02/21 11:21:39;;;;;;;17.08;2.38;;;;;;;5.90;64.01;97974.94;5030246;28;20076;-55
2022/02/21 11:24:04;;;;;;;11.70;2.00;;;;;;;5.83;64.87;97974.28;5024634;28;20078;-53
2022/02/21 11:26:33;;;;;;;16.45;2.17;;;;;;;5.71;64.65;97960.25;5030029;28;20399;-54
2022/02/21 11:29:21;;;;;;;14.52;3.60;;;;;;;5.88;65.26;97960.25;5028129;28;20191;-54
2022/02/21 11:31:47;;;;;;;18.48;2.78;;;;;;;6.02;64.61;97935.78;5031788;28;20112;-54